Airfield :
LOGIN :

Register | Disclaimer

   EN    FR    IT 

 










Legend :    VFR   Marginal VFR   IFR   Intensive IFR   Very Intensive IFR
Visi :
Ceiling :
>= 8 km
>= 3000ft
5 to 8 km
1000 to 3000 ft
1500m to 5 km
500 to 1000 ft
800 to 1500m
200 to 500 ft
< 800m
< 200 ft
Symbols :   Thunderstorms  Fog  Heavy snow  Heavy precipitations  Wind > 20 kt
SIGMETs :     Misc.  Thunderstorms  Icing  Turbulence  Mountain Waves  Volcanic Ashes







- Airport Elevation : 408 ft
- IATA code : FKB


EDSB - Karlsruhe Baden Baden

CURRENT METAR :
  • 221820Z 31006KT 250V020 CAVOK 18/06 Q1025

EXPIRED METARs :
  • 221750Z 34007KT CAVOK 18/06 Q1025
  • 221720Z 34005KT 300V010 CAVOK 18/05 Q1025
  • 221650Z 32007KT 280V350 CAVOK 18/06 Q1025
  • 221620Z 31007KT 260V340 CAVOK 18/06 Q1025
  • 221550Z 32007KT 290V360 CAVOK 18/06 Q1025

TAF TAF EDSB
Valid from the 22 at 18:00 until the 23 at 18:00 UTC


221700Z 2218/2318 32006KT CAVOK
BECMG 2218/2220 VRB03KT
BECMG 2306/2308 02007KT
No reported NOTAMs for that airfield.



MET'MAP, your aeronautical weather chart ! - Copyright ORBIFLY December 2007 - Disclaimer

ORBIFLY MET'MAP TEAM :

Programming & Development : Alexandra Zaïnal
Concept & Development : Baudouin d'Aumeries
Co-Development & Prog : Marc-Olivier Méhu
Technical & hardware support : Manuel Goepfert

Contact : metmap@orbifly.com




SOURCES & CREDITS :

   NOAA